sensor_id;sensor_type;location;lat;lon;timestamp;P1;durP1;ratioP1;P2;durP2;ratioP2
76292;SDS011;67256;51.154;4.164;2024-02-26T00:01:39;4.30;;;1.88;;
76292;SDS011;67256;51.154;4.164;2024-02-26T00:04:05;7.07;;;1.75;;
76292;SDS011;67256;51.154;4.164;2024-02-26T00:06:31;4.35;;;2.40;;
76292;SDS011;67256;51.154;4.164;2024-02-26T00:08:57;4.78;;;2.17;;
76292;SDS011;67256;51.154;4.164;2024-02-26T00:11:23;5.55;;;2.10;;
76292;SDS011;67256;51.154;4.164;2024-02-26T00:13:49;3.63;;;2.00;;
76292;SDS011;67256;51.154;4.164;2024-02-26T00:16:15;7.25;;;2.22;;
76292;SDS011;67256;51.154;4.164;2024-02-26T00:18:41;3.38;;;2.08;;
76292;SDS011;67256;51.154;4.164;2024-02-26T00:21:07;4.72;;;1.77;;
76292;SDS011;67256;51.154;4.164;2024-02-26T00:23:32;3.15;;;1.75;;
76292;SDS011;67256;51.154;4.164;2024-02-26T00:25:58;5.68;;;2.28;;
76292;SDS011;67256;51.154;4.164;2024-02-26T00:28:24;3.58;;;2.03;;
76292;SDS011;67256;51.154;4.164;2024-02-26T00:30:50;3.38;;;1.92;;
76292;SDS011;67256;51.154;4.164;2024-02-26T00:33:20;4.45;;;2.13;;
76292;SDS011;67256;51.154;4.164;2024-02-26T00:35:47;6.35;;;1.98;;
76292;SDS011;67256;51.154;4.164;2024-02-26T00:38:13;4.30;;;2.05;;
76292;SDS011;67256;51.154;4.164;2024-02-26T00:40:39;4.68;;;2.13;;
76292;SDS011;67256;51.154;4.164;2024-02-26T00:43:08;4.50;;;2.10;;
76292;SDS011;67256;51.154;4.164;2024-02-26T00:45:34;3.97;;;1.98;;
76292;SDS011;67256;51.154;4.164;2024-02-26T00:48:00;3.50;;;2.25;;
76292;SDS011;67256;51.154;4.164;2024-02-26T00:50:29;3.65;;;1.80;;
76292;SDS011;67256;51.154;4.164;2024-02-26T00:52:55;3.60;;;2.20;;
76292;SDS011;67256;51.154;4.164;2024-02-26T00:55:21;4.25;;;1.80;;
76292;SDS011;67256;51.154;4.164;2024-02-26T00:57:47;6.45;;;1.90;;
76292;SDS011;67256;51.154;4.164;2024-02-26T01:00:13;3.58;;;1.77;;
76292;SDS011;67256;51.154;4.164;2024-02-26T01:02:39;3.13;;;2.05;;
76292;SDS011;67256;51.154;4.164;2024-02-26T01:05:06;4.40;;;1.83;;
76292;SDS011;67256;51.154;4.164;2024-02-26T01:07:34;5.90;;;2.25;;
76292;SDS011;67256;51.154;4.164;2024-02-26T01:10:04;4.82;;;2.15;;
76292;SDS011;67256;51.154;4.164;2024-02-26T01:12:33;3.83;;;1.88;;
76292;SDS011;67256;51.154;4.164;2024-02-26T01:14:59;3.78;;;1.92;;
76292;SDS011;67256;51.154;4.164;2024-02-26T01:17:26;4.35;;;2.30;;
76292;SDS011;67256;51.154;4.164;2024-02-26T01:19:51;3.92;;;1.50;;
76292;SDS011;67256;51.154;4.164;2024-02-26T01:22:18;3.72;;;2.05;;
76292;SDS011;67256;51.154;4.164;2024-02-26T01:24:44;5.28;;;1.85;;
76292;SDS011;67256;51.154;4.164;2024-02-26T01:27:10;5.18;;;1.90;;
76292;SDS011;67256;51.154;4.164;2024-02-26T01:29:36;4.93;;;1.88;;
76292;SDS011;67256;51.154;4.164;2024-02-26T01:32:01;3.42;;;1.88;;
76292;SDS011;67256;51.154;4.164;2024-02-26T01:34:29;3.30;;;1.90;;
76292;SDS011;67256;51.154;4.164;2024-02-26T01:36:55;4.45;;;1.80;;
76292;SDS011;67256;51.154;4.164;2024-02-26T01:39:21;4.78;;;2.17;;
76292;SDS011;67256;51.154;4.164;2024-02-26T01:41:47;2.92;;;2.17;;
76292;SDS011;67256;51.154;4.164;2024-02-26T01:44:13;5.35;;;2.33;;
76292;SDS011;67256;51.154;4.164;2024-02-26T01:46:39;7.38;;;2.88;;
76292;SDS011;67256;51.154;4.164;2024-02-26T01:49:05;4.65;;;2.88;;
76292;SDS011;67256;51.154;4.164;2024-02-26T01:51:33;4.43;;;2.25;;
76292;SDS011;67256;51.154;4.164;2024-02-26T01:54:00;3.92;;;2.20;;
76292;SDS011;67256;51.154;4.164;2024-02-26T01:56:28;5.20;;;2.38;;
76292;SDS011;67256;51.154;4.164;2024-02-26T01:58:59;3.63;;;2.05;;
76292;SDS011;67256;51.154;4.164;2024-02-26T02:06:23;4.88;;;1.90;;
76292;SDS011;67256;51.154;4.164;2024-02-26T02:08:49;3.03;;;2.20;;
76292;SDS011;67256;51.154;4.164;2024-02-26T02:11:15;4.25;;;1.73;;
76292;SDS011;67256;51.154;4.164;2024-02-26T02:13:42;4.00;;;2.10;;
76292;SDS011;67256;51.154;4.164;2024-02-26T02:16:08;4.63;;;2.28;;
76292;SDS011;67256;51.154;4.164;2024-02-26T02:18:34;4.03;;;2.40;;
76292;SDS011;67256;51.154;4.164;2024-02-26T02:21:00;4.43;;;2.45;;
76292;SDS011;67256;51.154;4.164;2024-02-26T02:23:26;3.95;;;1.90;;
76292;SDS011;67256;51.154;4.164;2024-02-26T02:25:52;3.78;;;2.15;;
76292;SDS011;67256;51.154;4.164;2024-02-26T02:28:20;3.47;;;2.10;;
76292;SDS011;67256;51.154;4.164;2024-02-26T02:30:46;4.18;;;2.20;;
76292;SDS011;67256;51.154;4.164;2024-02-26T02:33:13;4.25;;;2.55;;
76292;SDS011;67256;51.154;4.164;2024-02-26T02:35:40;4.50;;;2.17;;
76292;SDS011;67256;51.154;4.164;2024-02-26T02:38:06;5.70;;;2.75;;
76292;SDS011;67256;51.154;4.164;2024-02-26T02:40:32;3.83;;;2.50;;
76292;SDS011;67256;51.154;4.164;2024-02-26T02:42:57;3.28;;;2.28;;
76292;SDS011;67256;51.154;4.164;2024-02-26T02:45:23;4.38;;;3.40;;
76292;SDS011;67256;51.154;4.164;2024-02-26T02:47:49;3.47;;;2.92;;
76292;SDS011;67256;51.154;4.164;2024-02-26T02:50:15;4.05;;;3.03;;
76292;SDS011;67256;51.154;4.164;2024-02-26T02:52:41;4.30;;;3.25;;
76292;SDS011;67256;51.154;4.164;2024-02-26T02:55:06;3.95;;;3.20;;
76292;SDS011;67256;51.154;4.164;2024-02-26T02:57:32;6.43;;;3.83;;
76292;SDS011;67256;51.154;4.164;2024-02-26T02:59:59;5.53;;;3.30;;
76292;SDS011;67256;51.154;4.164;2024-02-26T03:02:24;6.05;;;4.30;;
76292;SDS011;67256;51.154;4.164;2024-02-26T03:04:50;5.93;;;3.58;;
76292;SDS011;67256;51.154;4.164;2024-02-26T03:07:16;7.07;;;4.40;;
76292;SDS011;67256;51.154;4.164;2024-02-26T03:09:42;4.97;;;3.80;;
76292;SDS011;67256;51.154;4.164;2024-02-26T03:12:08;5.90;;;3.70;;
76292;SDS011;67256;51.154;4.164;2024-02-26T03:14:34;7.05;;;4.53;;
76292;SDS011;67256;51.154;4.164;2024-02-26T03:16:59;8.15;;;4.57;;
76292;SDS011;67256;51.154;4.164;2024-02-26T03:19:25;6.13;;;4.35;;
76292;SDS011;67256;51.154;4.164;2024-02-26T03:21:51;5.72;;;4.43;;
76292;SDS011;67256;51.154;4.164;2024-02-26T03:24:17;6.47;;;4.95;;
76292;SDS011;67256;51.154;4.164;2024-02-26T03:26:42;9.45;;;5.15;;
76292;SDS011;67256;51.154;4.164;2024-02-26T03:29:08;7.30;;;4.85;;
76292;SDS011;67256;51.154;4.164;2024-02-26T03:31:34;9.82;;;5.75;;
76292;SDS011;67256;51.154;4.164;2024-02-26T03:34:00;6.82;;;5.32;;
76292;SDS011;67256;51.154;4.164;2024-02-26T03:36:25;8.60;;;6.22;;
76292;SDS011;67256;51.154;4.164;2024-02-26T03:38:52;9.38;;;6.13;;
76292;SDS011;67256;51.154;4.164;2024-02-26T03:41:18;8.27;;;5.97;;
76292;SDS011;67256;51.154;4.164;2024-02-26T03:43:43;10.80;;;6.63;;
76292;SDS011;67256;51.154;4.164;2024-02-26T03:46:10;10.70;;;6.32;;
76292;SDS011;67256;51.154;4.164;2024-02-26T03:48:38;11.32;;;7.30;;
76292;SDS011;67256;51.154;4.164;2024-02-26T03:51:05;8.25;;;6.43;;
76292;SDS011;67256;51.154;4.164;2024-02-26T03:53:30;8.82;;;6.30;;
76292;SDS011;67256;51.154;4.164;2024-02-26T03:55:56;10.55;;;7.03;;
76292;SDS011;67256;51.154;4.164;2024-02-26T03:58:22;10.15;;;7.30;;
76292;SDS011;67256;51.154;4.164;2024-02-26T04:00:48;7.30;;;6.50;;
76292;SDS011;67256;51.154;4.164;2024-02-26T04:03:13;12.52;;;7.35;;
76292;SDS011;67256;51.154;4.164;2024-02-26T04:05:39;10.27;;;7.13;;
76292;SDS011;67256;51.154;4.164;2024-02-26T04:08:05;7.15;;;6.18;;
76292;SDS011;67256;51.154;4.164;2024-02-26T04:10:32;9.82;;;6.00;;
76292;SDS011;67256;51.154;4.164;2024-02-26T04:13:00;9.18;;;6.47;;
76292;SDS011;67256;51.154;4.164;2024-02-26T04:15:26;7.70;;;5.82;;
76292;SDS011;67256;51.154;4.164;2024-02-26T04:17:51;10.20;;;6.05;;
76292;SDS011;67256;51.154;4.164;2024-02-26T04:20:18;7.15;;;5.32;;
76292;SDS011;67256;51.154;4.164;2024-02-26T04:22:44;8.80;;;5.55;;
76292;SDS011;67256;51.154;4.164;2024-02-26T04:25:10;6.05;;;4.75;;
76292;SDS011;67256;51.154;4.164;2024-02-26T04:27:36;5.97;;;4.95;;
76292;SDS011;67256;51.154;4.164;2024-02-26T04:30:02;6.57;;;4.80;;
76292;SDS011;67256;51.154;4.164;2024-02-26T04:32:29;6.28;;;4.78;;
76292;SDS011;67256;51.154;4.164;2024-02-26T04:34:54;8.60;;;5.22;;
76292;SDS011;67256;51.154;4.164;2024-02-26T04:37:20;7.70;;;4.68;;
76292;SDS011;67256;51.154;4.164;2024-02-26T04:39:46;5.60;;;4.63;;
76292;SDS011;67256;51.154;4.164;2024-02-26T04:42:11;6.55;;;4.63;;
76292;SDS011;67256;51.154;4.164;2024-02-26T04:44:37;8.43;;;5.10;;
76292;SDS011;67256;51.154;4.164;2024-02-26T04:47:03;6.07;;;4.57;;
76292;SDS011;67256;51.154;4.164;2024-02-26T04:49:29;5.50;;;4.38;;
76292;SDS011;67256;51.154;4.164;2024-02-26T04:51:54;5.97;;;4.72;;
76292;SDS011;67256;51.154;4.164;2024-02-26T04:54:20;5.70;;;4.00;;
76292;SDS011;67256;51.154;4.164;2024-02-26T04:56:48;8.45;;;4.60;;
76292;SDS011;67256;51.154;4.164;2024-02-26T04:59:14;5.43;;;3.80;;
76292;SDS011;67256;51.154;4.164;2024-02-26T05:01:40;5.03;;;4.53;;
76292;SDS011;67256;51.154;4.164;2024-02-26T05:04:06;8.13;;;4.63;;
76292;SDS011;67256;51.154;4.164;2024-02-26T05:06:32;6.55;;;4.60;;
76292;SDS011;67256;51.154;4.164;2024-02-26T05:08:58;6.07;;;4.50;;
76292;SDS011;67256;51.154;4.164;2024-02-26T05:11:23;7.40;;;5.35;;
76292;SDS011;67256;51.154;4.164;2024-02-26T05:13:49;7.75;;;5.10;;
76292;SDS011;67256;51.154;4.164;2024-02-26T05:16:14;6.40;;;5.07;;
76292;SDS011;67256;51.154;4.164;2024-02-26T05:18:40;7.47;;;4.80;;
76292;SDS011;67256;51.154;4.164;2024-02-26T05:21:06;6.22;;;5.20;;
76292;SDS011;67256;51.154;4.164;2024-02-26T05:23:31;6.47;;;4.95;;
76292;SDS011;67256;51.154;4.164;2024-02-26T05:25:57;5.60;;;5.00;;
76292;SDS011;67256;51.154;4.164;2024-02-26T05:28:23;8.15;;;5.28;;
76292;SDS011;67256;51.154;4.164;2024-02-26T05:30:49;6.45;;;4.85;;
76292;SDS011;67256;51.154;4.164;2024-02-26T05:33:14;7.00;;;5.47;;
76292;SDS011;67256;51.154;4.164;2024-02-26T05:35:40;6.55;;;5.13;;
76292;SDS011;67256;51.154;4.164;2024-02-26T05:38:06;5.80;;;5.18;;
76292;SDS011;67256;51.154;4.164;2024-02-26T05:40:32;6.28;;;4.60;;
76292;SDS011;67256;51.154;4.164;2024-02-26T05:42:58;7.43;;;4.93;;
76292;SDS011;67256;51.154;4.164;2024-02-26T05:45:24;5.97;;;5.20;;
76292;SDS011;67256;51.154;4.164;2024-02-26T05:47:49;7.03;;;5.20;;
76292;SDS011;67256;51.154;4.164;2024-02-26T05:50:15;6.72;;;5.03;;
76292;SDS011;67256;51.154;4.164;2024-02-26T05:52:41;7.03;;;5.20;;
76292;SDS011;67256;51.154;4.164;2024-02-26T05:55:07;8.55;;;4.57;;
76292;SDS011;67256;51.154;4.164;2024-02-26T05:57:34;7.38;;;5.10;;
76292;SDS011;67256;51.154;4.164;2024-02-26T06:00:00;5.50;;;4.90;;
76292;SDS011;67256;51.154;4.164;2024-02-26T06:02:31;7.35;;;4.80;;
76292;SDS011;67256;51.154;4.164;2024-02-26T06:04:57;7.07;;;4.50;;
76292;SDS011;67256;51.154;4.164;2024-02-26T06:07:23;6.97;;;4.40;;
76292;SDS011;67256;51.154;4.164;2024-02-26T06:09:50;6.28;;;4.53;;
76292;SDS011;67256;51.154;4.164;2024-02-26T06:12:15;6.82;;;4.80;;
76292;SDS011;67256;51.154;4.164;2024-02-26T06:14:42;6.80;;;4.63;;
76292;SDS011;67256;51.154;4.164;2024-02-26T06:17:08;5.78;;;4.78;;
76292;SDS011;67256;51.154;4.164;2024-02-26T06:19:34;5.65;;;4.28;;
76292;SDS011;67256;51.154;4.164;2024-02-26T06:22:00;7.38;;;5.25;;
76292;SDS011;67256;51.154;4.164;2024-02-26T06:24:26;8.77;;;5.60;;
76292;SDS011;67256;51.154;4.164;2024-02-26T06:26:51;6.75;;;4.88;;
76292;SDS011;67256;51.154;4.164;2024-02-26T06:29:17;5.28;;;4.38;;
76292;SDS011;67256;51.154;4.164;2024-02-26T06:31:43;5.55;;;4.95;;
76292;SDS011;67256;51.154;4.164;2024-02-26T06:34:08;6.97;;;5.10;;
76292;SDS011;67256;51.154;4.164;2024-02-26T06:36:34;10.45;;;5.28;;
76292;SDS011;67256;51.154;4.164;2024-02-26T06:39:00;7.68;;;5.88;;
76292;SDS011;67256;51.154;4.164;2024-02-26T06:41:26;6.82;;;5.18;;
76292;SDS011;67256;51.154;4.164;2024-02-26T06:43:55;9.32;;;6.15;;
76292;SDS011;67256;51.154;4.164;2024-02-26T06:46:22;9.43;;;5.50;;
76292;SDS011;67256;51.154;4.164;2024-02-26T06:48:48;7.38;;;5.72;;
76292;SDS011;67256;51.154;4.164;2024-02-26T06:51:14;8.23;;;5.63;;
76292;SDS011;67256;51.154;4.164;2024-02-26T06:53:40;7.22;;;5.47;;
76292;SDS011;67256;51.154;4.164;2024-02-26T06:56:06;6.07;;;4.80;;
76292;SDS011;67256;51.154;4.164;2024-02-26T06:58:32;9.30;;;5.45;;
76292;SDS011;67256;51.154;4.164;2024-02-26T07:00:58;9.43;;;5.22;;
76292;SDS011;67256;51.154;4.164;2024-02-26T07:03:24;7.53;;;5.15;;
76292;SDS011;67256;51.154;4.164;2024-02-26T07:05:50;6.75;;;4.72;;
76292;SDS011;67256;51.154;4.164;2024-02-26T07:08:16;7.30;;;4.82;;
76292;SDS011;67256;51.154;4.164;2024-02-26T07:10:42;7.40;;;5.18;;
76292;SDS011;67256;51.154;4.164;2024-02-26T07:13:08;7.85;;;5.35;;
76292;SDS011;67256;51.154;4.164;2024-02-26T07:15:34;6.10;;;5.03;;
76292;SDS011;67256;51.154;4.164;2024-02-26T07:18:00;6.65;;;4.85;;
76292;SDS011;67256;51.154;4.164;2024-02-26T07:20:28;6.72;;;6.03;;
76292;SDS011;67256;51.154;4.164;2024-02-26T07:22:55;7.13;;;4.80;;
76292;SDS011;67256;51.154;4.164;2024-02-26T07:25:21;10.50;;;5.18;;
76292;SDS011;67256;51.154;4.164;2024-02-26T07:27:47;5.80;;;4.88;;
76292;SDS011;67256;51.154;4.164;2024-02-26T07:30:13;7.32;;;4.55;;
76292;SDS011;67256;51.154;4.164;2024-02-26T07:32:39;4.40;;;4.00;;
76292;SDS011;67256;51.154;4.164;2024-02-26T07:35:04;7.30;;;5.38;;
76292;SDS011;67256;51.154;4.164;2024-02-26T07:37:30;5.30;;;4.80;;
76292;SDS011;67256;51.154;4.164;2024-02-26T07:39:57;7.38;;;5.20;;
76292;SDS011;67256;51.154;4.164;2024-02-26T07:42:22;6.13;;;5.25;;
76292;SDS011;67256;51.154;4.164;2024-02-26T07:44:48;7.97;;;5.28;;
76292;SDS011;67256;51.154;4.164;2024-02-26T07:47:14;7.32;;;5.40;;
76292;SDS011;67256;51.154;4.164;2024-02-26T07:49:40;6.13;;;4.80;;
76292;SDS011;67256;51.154;4.164;2024-02-26T07:52:06;6.97;;;4.68;;
76292;SDS011;67256;51.154;4.164;2024-02-26T07:54:32;6.03;;;4.00;;
76292;SDS011;67256;51.154;4.164;2024-02-26T07:56:57;7.95;;;4.43;;
76292;SDS011;67256;51.154;4.164;2024-02-26T07:59:23;6.47;;;4.65;;
76292;SDS011;67256;51.154;4.164;2024-02-26T08:01:52;5.75;;;4.30;;
76292;SDS011;67256;51.154;4.164;2024-02-26T08:04:18;7.90;;;4.87;;
76292;SDS011;67256;51.154;4.164;2024-02-26T08:06:43;6.70;;;4.47;;
76292;SDS011;67256;51.154;4.164;2024-02-26T08:09:09;7.28;;;4.38;;
76292;SDS011;67256;51.154;4.164;2024-02-26T08:11:35;6.45;;;4.57;;
76292;SDS011;67256;51.154;4.164;2024-02-26T08:14:00;5.68;;;4.68;;
76292;SDS011;67256;51.154;4.164;2024-02-26T08:16:26;7.95;;;4.78;;
76292;SDS011;67256;51.154;4.164;2024-02-26T08:18:52;9.57;;;5.03;;
76292;SDS011;67256;51.154;4.164;2024-02-26T08:21:18;7.18;;;5.15;;
76292;SDS011;67256;51.154;4.164;2024-02-26T08:23:44;7.85;;;5.63;;
76292;SDS011;67256;51.154;4.164;2024-02-26T08:26:09;8.68;;;4.50;;
76292;SDS011;67256;51.154;4.164;2024-02-26T08:28:39;6.88;;;5.57;;
76292;SDS011;67256;51.154;4.164;2024-02-26T08:31:05;7.57;;;4.97;;
76292;SDS011;67256;51.154;4.164;2024-02-26T08:33:31;6.28;;;4.60;;
76292;SDS011;67256;51.154;4.164;2024-02-26T08:35:56;7.93;;;5.15;;
76292;SDS011;67256;51.154;4.164;2024-02-26T08:38:23;8.77;;;5.60;;
76292;SDS011;67256;51.154;4.164;2024-02-26T08:40:49;6.80;;;5.43;;
76292;SDS011;67256;51.154;4.164;2024-02-26T08:43:14;8.32;;;5.18;;
76292;SDS011;67256;51.154;4.164;2024-02-26T08:45:40;7.80;;;5.85;;
76292;SDS011;67256;51.154;4.164;2024-02-26T08:48:06;6.85;;;5.18;;
76292;SDS011;67256;51.154;4.164;2024-02-26T08:50:32;8.48;;;6.22;;
76292;SDS011;67256;51.154;4.164;2024-02-26T08:52:58;6.32;;;5.47;;
76292;SDS011;67256;51.154;4.164;2024-02-26T08:55:26;6.80;;;5.47;;
76292;SDS011;67256;51.154;4.164;2024-02-26T08:57:51;9.77;;;6.22;;
76292;SDS011;67256;51.154;4.164;2024-02-26T09:00:18;6.97;;;5.63;;
76292;SDS011;67256;51.154;4.164;2024-02-26T09:02:46;9.32;;;6.65;;
76292;SDS011;67256;51.154;4.164;2024-02-26T09:05:12;5.85;;;4.65;;
76292;SDS011;67256;51.154;4.164;2024-02-26T09:07:38;8.18;;;5.85;;
76292;SDS011;67256;51.154;4.164;2024-02-26T09:10:04;7.38;;;6.07;;
76292;SDS011;67256;51.154;4.164;2024-02-26T09:12:31;6.65;;;5.13;;
76292;SDS011;67256;51.154;4.164;2024-02-26T09:14:56;7.75;;;6.00;;
76292;SDS011;67256;51.154;4.164;2024-02-26T09:17:22;8.65;;;5.97;;
76292;SDS011;67256;51.154;4.164;2024-02-26T09:19:48;6.85;;;4.88;;
76292;SDS011;67256;51.154;4.164;2024-02-26T09:22:14;8.55;;;6.18;;
76292;SDS011;67256;51.154;4.164;2024-02-26T09:24:40;8.50;;;5.50;;
76292;SDS011;67256;51.154;4.164;2024-02-26T09:27:05;5.70;;;5.10;;
76292;SDS011;67256;51.154;4.164;2024-02-26T09:29:31;7.22;;;6.50;;
76292;SDS011;67256;51.154;4.164;2024-02-26T09:31:58;10.70;;;6.45;;
76292;SDS011;67256;51.154;4.164;2024-02-26T09:34:23;7.72;;;5.55;;
76292;SDS011;67256;51.154;4.164;2024-02-26T09:36:49;9.13;;;5.72;;
76292;SDS011;67256;51.154;4.164;2024-02-26T09:39:15;7.28;;;6.05;;
76292;SDS011;67256;51.154;4.164;2024-02-26T09:41:46;8.57;;;5.90;;
76292;SDS011;67256;51.154;4.164;2024-02-26T09:44:15;8.25;;;6.45;;
76292;SDS011;67256;51.154;4.164;2024-02-26T09:46:46;8.27;;;6.40;;
76292;SDS011;67256;51.154;4.164;2024-02-26T09:49:15;6.37;;;5.37;;
76292;SDS011;67256;51.154;4.164;2024-02-26T09:51:41;11.07;;;5.47;;
76292;SDS011;67256;51.154;4.164;2024-02-26T09:54:07;7.45;;;6.57;;
76292;SDS011;67256;51.154;4.164;2024-02-26T09:56:35;7.88;;;6.15;;
76292;SDS011;67256;51.154;4.164;2024-02-26T09:59:11;7.65;;;6.32;;
76292;SDS011;67256;51.154;4.164;2024-02-26T10:01:42;6.45;;;5.50;;
76292;SDS011;67256;51.154;4.164;2024-02-26T10:04:09;9.20;;;6.40;;
76292;SDS011;67256;51.154;4.164;2024-02-26T10:06:36;8.20;;;6.95;;
76292;SDS011;67256;51.154;4.164;2024-02-26T10:09:02;7.50;;;6.32;;
76292;SDS011;67256;51.154;4.164;2024-02-26T10:11:31;10.27;;;6.68;;
76292;SDS011;67256;51.154;4.164;2024-02-26T10:13:57;8.13;;;6.22;;
76292;SDS011;67256;51.154;4.164;2024-02-26T10:16:24;6.95;;;5.70;;
76292;SDS011;67256;51.154;4.164;2024-02-26T10:18:51;9.85;;;6.55;;
76292;SDS011;67256;51.154;4.164;2024-02-26T10:21:20;7.70;;;5.93;;
76292;SDS011;67256;51.154;4.164;2024-02-26T10:23:47;8.02;;;6.55;;
76292;SDS011;67256;51.154;4.164;2024-02-26T10:26:13;8.55;;;7.10;;
76292;SDS011;67256;51.154;4.164;2024-02-26T10:28:43;11.80;;;7.13;;
76292;SDS011;67256;51.154;4.164;2024-02-26T10:31:10;8.65;;;6.88;;
76292;SDS011;67256;51.154;4.164;2024-02-26T10:33:38;8.27;;;6.20;;
76292;SDS011;67256;51.154;4.164;2024-02-26T10:36:05;9.10;;;7.05;;
76292;SDS011;67256;51.154;4.164;2024-02-26T10:38:35;8.35;;;6.57;;
76292;SDS011;67256;51.154;4.164;2024-02-26T10:41:02;10.10;;;6.95;;
76292;SDS011;67256;51.154;4.164;2024-02-26T10:43:28;9.70;;;7.50;;
76292;SDS011;67256;51.154;4.164;2024-02-26T10:45:55;9.68;;;7.68;;
76292;SDS011;67256;51.154;4.164;2024-02-26T10:48:21;10.40;;;7.78;;
76292;SDS011;67256;51.154;4.164;2024-02-26T10:50:47;8.75;;;7.75;;
76292;SDS011;67256;51.154;4.164;2024-02-26T10:53:17;9.18;;;7.45;;
76292;SDS011;67256;51.154;4.164;2024-02-26T10:55:47;12.57;;;8.50;;
76292;SDS011;67256;51.154;4.164;2024-02-26T10:58:14;10.00;;;8.02;;
76292;SDS011;67256;51.154;4.164;2024-02-26T11:00:42;11.27;;;8.55;;
76292;SDS011;67256;51.154;4.164;2024-02-26T11:03:08;14.25;;;9.32;;
76292;SDS011;67256;51.154;4.164;2024-02-26T11:05:35;11.75;;;8.43;;
76292;SDS011;67256;51.154;4.164;2024-02-26T11:08:02;13.15;;;8.68;;
76292;SDS011;67256;51.154;4.164;2024-02-26T11:10:30;14.15;;;8.68;;
76292;SDS011;67256;51.154;4.164;2024-02-26T11:12:57;13.10;;;9.10;;
76292;SDS011;67256;51.154;4.164;2024-02-26T11:15:26;11.20;;;8.60;;
76292;SDS011;67256;51.154;4.164;2024-02-26T11:17:54;17.80;;;9.98;;
76292;SDS011;67256;51.154;4.164;2024-02-26T11:20:21;12.95;;;9.63;;
76292;SDS011;67256;51.154;4.164;2024-02-26T11:22:48;14.63;;;9.98;;
76292;SDS011;67256;51.154;4.164;2024-02-26T11:25:14;13.63;;;9.82;;
76292;SDS011;67256;51.154;4.164;2024-02-26T11:27:46;11.95;;;9.30;;
76292;SDS011;67256;51.154;4.164;2024-02-26T11:30:16;15.95;;;9.48;;
76292;SDS011;67256;51.154;4.164;2024-02-26T11:32:46;12.25;;;9.15;;
76292;SDS011;67256;51.154;4.164;2024-02-26T11:35:12;12.30;;;8.73;;
76292;SDS011;67256;51.154;4.164;2024-02-26T11:37:42;14.50;;;9.68;;
76292;SDS011;67256;51.154;4.164;2024-02-26T11:40:21;10.93;;;8.23;;
76292;SDS011;67256;51.154;4.164;2024-02-26T11:42:48;12.32;;;7.97;;
76292;SDS011;67256;51.154;4.164;2024-02-26T11:48:24;11.93;;;8.93;;
76292;SDS011;67256;51.154;4.164;2024-02-26T11:50:51;12.90;;;9.43;;
76292;SDS011;67256;51.154;4.164;2024-02-26T11:58:53;11.75;;;9.25;;
76292;SDS011;67256;51.154;4.164;2024-02-26T12:12:19;14.13;;;8.30;;
76292;SDS011;67256;51.154;4.164;2024-02-26T12:14:53;8.48;;;7.40;;
76292;SDS011;67256;51.154;4.164;2024-02-26T12:17:21;10.40;;;7.13;;
76292;SDS011;67256;51.154;4.164;2024-02-26T12:22:18;11.20;;;6.63;;
76292;SDS011;67256;51.154;4.164;2024-02-26T12:24:44;11.95;;;7.85;;
76292;SDS011;67256;51.154;4.164;2024-02-26T12:27:10;10.63;;;7.18;;
76292;SDS011;67256;51.154;4.164;2024-02-26T12:29:36;12.57;;;7.07;;
76292;SDS011;67256;51.154;4.164;2024-02-26T12:32:02;10.50;;;7.32;;
76292;SDS011;67256;51.154;4.164;2024-02-26T12:34:29;13.55;;;7.95;;
76292;SDS011;67256;51.154;4.164;2024-02-26T12:36:56;8.75;;;7.10;;
76292;SDS011;67256;51.154;4.164;2024-02-26T12:39:22;10.88;;;7.82;;
76292;SDS011;67256;51.154;4.164;2024-02-26T12:41:48;11.85;;;8.02;;
76292;SDS011;67256;51.154;4.164;2024-02-26T12:44:15;10.25;;;7.40;;
76292;SDS011;67256;51.154;4.164;2024-02-26T12:46:41;9.18;;;6.13;;
76292;SDS011;67256;51.154;4.164;2024-02-26T12:49:07;7.97;;;6.57;;
76292;SDS011;67256;51.154;4.164;2024-02-26T12:51:33;9.38;;;7.22;;
76292;SDS011;67256;51.154;4.164;2024-02-26T12:53:59;10.68;;;7.63;;
76292;SDS011;67256;51.154;4.164;2024-02-26T12:56:26;10.38;;;7.68;;
76292;SDS011;67256;51.154;4.164;2024-02-26T12:58:54;9.52;;;7.40;;
76292;SDS011;67256;51.154;4.164;2024-02-26T13:01:22;11.93;;;9.65;;
76292;SDS011;67256;51.154;4.164;2024-02-26T13:03:50;10.07;;;7.88;;
76292;SDS011;67256;51.154;4.164;2024-02-26T13:06:17;12.05;;;8.77;;
76292;SDS011;67256;51.154;4.164;2024-02-26T13:08:43;9.95;;;7.30;;
76292;SDS011;67256;51.154;4.164;2024-02-26T13:11:10;8.77;;;7.50;;
76292;SDS011;67256;51.154;4.164;2024-02-26T13:13:36;11.57;;;8.13;;
76292;SDS011;67256;51.154;4.164;2024-02-26T13:16:05;9.13;;;7.82;;
76292;SDS011;67256;51.154;4.164;2024-02-26T13:18:33;9.52;;;7.10;;
76292;SDS011;67256;51.154;4.164;2024-02-26T13:23:38;8.88;;;7.03;;
76292;SDS011;67256;51.154;4.164;2024-02-26T13:26:05;11.63;;;7.72;;
76292;SDS011;67256;51.154;4.164;2024-02-26T13:28:31;10.63;;;8.45;;
76292;SDS011;67256;51.154;4.164;2024-02-26T13:30:58;9.60;;;7.80;;
76292;SDS011;67256;51.154;4.164;2024-02-26T13:33:26;10.13;;;7.53;;
76292;SDS011;67256;51.154;4.164;2024-02-26T13:35:53;10.95;;;8.55;;
76292;SDS011;67256;51.154;4.164;2024-02-26T13:38:22;8.15;;;6.55;;
76292;SDS011;67256;51.154;4.164;2024-02-26T13:40:48;7.50;;;6.65;;
76292;SDS011;67256;51.154;4.164;2024-02-26T13:43:15;8.75;;;6.80;;
76292;SDS011;67256;51.154;4.164;2024-02-26T13:45:40;7.82;;;6.85;;
76292;SDS011;67256;51.154;4.164;2024-02-26T13:48:07;7.80;;;6.18;;
76292;SDS011;67256;51.154;4.164;2024-02-26T13:50:39;12.15;;;7.25;;
76292;SDS011;67256;51.154;4.164;2024-02-26T13:53:06;7.25;;;6.18;;
76292;SDS011;67256;51.154;4.164;2024-02-26T13:55:32;8.10;;;6.68;;
76292;SDS011;67256;51.154;4.164;2024-02-26T13:57:58;10.05;;;6.45;;
76292;SDS011;67256;51.154;4.164;2024-02-26T14:00:26;6.43;;;4.97;;
76292;SDS011;67256;51.154;4.164;2024-02-26T14:02:53;6.30;;;5.45;;
76292;SDS011;67256;51.154;4.164;2024-02-26T14:05:18;12.80;;;6.45;;
76292;SDS011;67256;51.154;4.164;2024-02-26T14:07:45;7.25;;;6.43;;
76292;SDS011;67256;51.154;4.164;2024-02-26T14:10:13;8.77;;;6.10;;
76292;SDS011;67256;51.154;4.164;2024-02-26T14:12:41;6.70;;;6.00;;
76292;SDS011;67256;51.154;4.164;2024-02-26T14:15:07;6.88;;;6.05;;
76292;SDS011;67256;51.154;4.164;2024-02-26T14:17:35;7.35;;;5.00;;
76292;SDS011;67256;51.154;4.164;2024-02-26T14:20:01;6.97;;;5.68;;
76292;SDS011;67256;51.154;4.164;2024-02-26T14:22:28;7.47;;;6.43;;
76292;SDS011;67256;51.154;4.164;2024-02-26T14:24:55;13.65;;;6.72;;
76292;SDS011;67256;51.154;4.164;2024-02-26T14:27:21;10.10;;;7.30;;
76292;SDS011;67256;51.154;4.164;2024-02-26T14:29:47;9.93;;;7.40;;
76292;SDS011;67256;51.154;4.164;2024-02-26T14:32:13;11.27;;;7.82;;
76292;SDS011;67256;51.154;4.164;2024-02-26T14:34:39;12.80;;;8.82;;
76292;SDS011;67256;51.154;4.164;2024-02-26T14:37:05;10.07;;;7.55;;
76292;SDS011;67256;51.154;4.164;2024-02-26T14:39:31;11.73;;;8.82;;
76292;SDS011;67256;51.154;4.164;2024-02-26T14:41:58;11.65;;;8.38;;
76292;SDS011;67256;51.154;4.164;2024-02-26T14:44:24;14.40;;;8.52;;
76292;SDS011;67256;51.154;4.164;2024-02-26T14:46:50;10.93;;;7.65;;
76292;SDS011;67256;51.154;4.164;2024-02-26T14:49:16;9.48;;;6.88;;
76292;SDS011;67256;51.154;4.164;2024-02-26T14:51:42;9.15;;;6.30;;
76292;SDS011;67256;51.154;4.164;2024-02-26T14:54:10;8.18;;;5.50;;
76292;SDS011;67256;51.154;4.164;2024-02-26T14:56:36;8.73;;;6.13;;
76292;SDS011;67256;51.154;4.164;2024-02-26T14:59:03;8.48;;;6.13;;
76292;SDS011;67256;51.154;4.164;2024-02-26T15:01:28;9.85;;;7.30;;
76292;SDS011;67256;51.154;4.164;2024-02-26T15:03:54;11.80;;;8.18;;
76292;SDS011;67256;51.154;4.164;2024-02-26T15:06:20;11.05;;;8.65;;
76292;SDS011;67256;51.154;4.164;2024-02-26T15:08:46;14.40;;;8.80;;
76292;SDS011;67256;51.154;4.164;2024-02-26T15:11:12;17.33;;;8.82;;